aviador You're here:

LFAT Decoded Metar

LE TOURQUET in FRANCE
Report Time2017-12-11 22:30:00
UTC Time2017-12-11 22:57:31
Flight Rules mvfr MVFR
Wind340° at 20 kt
W.Decomp.*RWY 32: 18.5 kt HW 7.5 kt RCW
W.Rank340° ranks 22
Current wind is above 340° avg. (8.6)
Visibility9999 m
Phenomena:N/A
Clouds:Overcast 018 Hf
Expected CloudBase > 800 ft AGL from Temp-Dew spread
Ceiling1,800 ft
Temp04°C (ISA -11)
Dew Point02°C (87% RH)
AAT-4.9°C
QNH0994 hPa
Density Alt-528 ft
Elevation46 ft
Report Wrong Elevation
Raw Report
METAR LFAT 112230Z AUTO 34020KT 9999 OVC018 04/02 Q0994=

Extra information for LFAT:More info

Metar Taf Metar & Taf Last 4 Metars F.Rules Stats Wind Profile Meteogram Temp Stats Airport Information Weather charts Add Link Nearby VenuesMetar ALERT Operation Metar Decoded Social comments

LeTouquet left-side RWY
Le Touquet center RWY
Le Touquet right-side RWY